Time,TemperatureF,DewpointF,PressureIn,WindDirection,WindDirectionDegrees,WindSpeedMPH,WindSpeedGustMPH,Humidity,HourlyPrecipIn,Conditions,Clouds,dailyrainin,SoftwareType,DateUTC
2013-01-17 00:02:00,35.0,28.0,30.15,West,270,8.0,11.0,75,-99.99,,,-99.99,,2013-01-17 06:02:00,
2013-01-17 00:12:00,35.0,28.0,30.15,West,270,6.0,9.0,77,-99.99,,,-99.99,,2013-01-17 06:12:00,
2013-01-17 00:22:00,35.0,28.0,30.15,West,270,6.0,10.0,76,-99.99,,,-99.99,,2013-01-17 06:22:00,
2013-01-17 00:32:00,35.0,29.0,30.15,West,270,4.0,6.0,78,-99.99,,,-99.99,,2013-01-17 06:32:00,
2013-01-17 00:42:00,34.0,29.0,30.16,West,270,4.0,6.0,80,-99.99,,,-99.99,,2013-01-17 06:42:00,
2013-01-17 00:52:00,34.0,28.0,30.17,West,270,5.0,7.0,79,-99.99,,,-99.99,,2013-01-17 06:52:00,
2013-01-17 01:02:00,33.0,28.0,30.17,WNW,292,6.0,9.0,79,-99.99,,,-99.99,,2013-01-17 07:02:00,
2013-01-17 01:12:00,33.0,27.0,30.18,WNW,292,5.0,7.0,80,-99.99,,,-99.99,,2013-01-17 07:12:00,
2013-01-17 01:22:00,32.0,27.0,30.18,WNW,292,5.0,7.0,81,-99.99,,,-99.99,,2013-01-17 07:22:00,
2013-01-17 01:32:00,32.0,27.0,30.18,WNW,292,4.0,7.0,80,-99.99,,,-99.99,,2013-01-17 07:32:00,
2013-01-17 01:42:00,32.0,27.0,30.19,WNW,292,4.0,6.0,81,-99.99,,,-99.99,,2013-01-17 07:42:00,
2013-01-17 01:52:00,32.0,27.0,30.19,NW,315,4.0,6.0,80,-99.99,,,-99.99,,2013-01-17 07:52:00,
2013-01-17 02:02:00,31.0,27.0,30.19,NW,315,5.0,6.0,84,-99.99,,,-99.99,,2013-01-17 08:02:00,
2013-01-17 02:12:00,30.0,26.0,30.20,NW,315,4.0,4.0,87,-99.99,,,-99.99,,2013-01-17 08:12:00,
2013-01-17 02:22:00,29.0,26.0,30.20,NW,315,4.0,5.0,88,-99.99,,,-99.99,,2013-01-17 08:22:00,
2013-01-17 02:32:00,29.0,26.0,30.21,NW,315,3.0,4.0,90,-99.99,,,-99.99,,2013-01-17 08:32:00,
2013-01-17 02:43:00,29.0,26.0,30.21,NNW,337,2.0,3.0,89,-99.99,,,-99.99,,2013-01-17 08:43:00,
2013-01-17 02:52:00,28.0,26.0,30.21,NNW,337,4.0,6.0,91,-99.99,,,-99.99,,2013-01-17 08:52:00,
2013-01-17 03:02:00,28.0,26.0,30.21,NNW,337,5.0,6.0,90,-99.99,,,-99.99,,2013-01-17 09:02:00,
2013-01-17 03:12:00,29.0,27.0,30.22,NNW,337,4.0,5.0,90,-99.99,,,-99.99,,2013-01-17 09:12:00,
2013-01-17 03:22:00,29.0,26.0,30.22,NNW,337,5.0,6.0,92,-99.99,,,-99.99,,2013-01-17 09:22:00,
2013-01-17 03:32:00,29.0,27.0,30.22,NNW,337,4.0,6.0,93,-99.99,,,-99.99,,2013-01-17 09:32:00,
2013-01-17 03:42:00,30.0,29.0,30.23,NNW,337,4.0,7.0,93,-99.99,,,-99.99,,2013-01-17 09:42:00,
2013-01-17 03:52:00,32.0,30.0,30.23,East,90,7.0,9.0,94,-99.99,,,-99.99,,2013-01-17 09:52:00,
2013-01-17 04:02:00,32.0,31.0,30.23,East,90,7.0,10.0,93,-99.99,,,-99.99,,2013-01-17 10:02:00,
2013-01-17 04:12:00,33.0,31.0,30.24,East,90,9.0,15.0,94,-99.99,,,-99.99,,2013-01-17 10:12:00,
2013-01-17 04:22:00,33.0,31.0,30.24,East,90,9.0,13.0,93,-99.99,,,-99.99,,2013-01-17 10:22:00,
2013-01-17 04:32:00,33.0,31.0,30.25,East,90,9.0,13.0,93,-99.99,,,-99.99,,2013-01-17 10:32:00,
2013-01-17 04:42:00,32.0,31.0,30.25,East,90,8.0,13.0,94,-99.99,,,-99.99,,2013-01-17 10:42:00,
2013-01-17 04:52:00,32.0,31.0,30.26,East,90,8.0,12.0,94,-99.99,,,-99.99,,2013-01-17 10:52:00,
2013-01-17 05:02:00,32.0,31.0,30.26,East,90,8.0,14.0,95,-99.99,,,-99.99,,2013-01-17 11:02:00,
2013-01-17 05:12:00,32.0,31.0,30.27,East,90,7.0,10.0,95,-99.99,,,-99.99,,2013-01-17 11:12:00,
2013-01-17 05:22:00,31.0,30.0,30.28,NNW,337,6.0,8.0,96,-99.99,,,-99.99,,2013-01-17 11:22:00,
2013-01-17 05:32:00,31.0,30.0,30.28,NNW,337,6.0,8.0,97,-99.99,,,-99.99,,2013-01-17 11:32:00,
2013-01-17 05:42:00,31.0,30.0,30.28,East,90,9.0,12.0,97,-99.99,,,-99.99,,2013-01-17 11:42:00,
2013-01-17 05:52:00,31.0,30.0,30.29,East,90,9.0,14.0,97,-99.99,,,-99.99,,2013-01-17 11:52:00,
2013-01-17 06:02:00,31.0,30.0,30.29,East,90,7.0,11.0,97,-99.99,,,-99.99,,2013-01-17 12:02:00,
2013-01-17 06:12:00,31.0,30.0,30.30,East,90,8.0,11.0,97,-99.99,,,-99.99,,2013-01-17 12:12:00,
2013-01-17 06:22:00,31.0,30.0,30.30,East,90,7.0,10.0,97,-99.99,,,-99.99,,2013-01-17 12:22:00,
2013-01-17 06:32:00,31.0,31.0,30.31,East,90,7.0,10.0,98,-99.99,,,-99.99,,2013-01-17 12:32:00,
2013-01-17 06:42:00,31.0,31.0,30.31,East,90,7.0,10.0,97,-99.99,,,-99.99,,2013-01-17 12:42:00,
2013-01-17 06:52:00,32.0,31.0,30.32,East,90,7.0,13.0,96,-99.99,,,-99.99,,2013-01-17 12:52:00,
2013-01-17 07:03:00,32.0,31.0,30.32,East,90,11.0,17.0,95,-99.99,,,-99.99,,2013-01-17 13:03:00,
2013-01-17 07:12:00,32.0,30.0,30.32,East,90,10.0,15.0,94,-99.99,,,-99.99,,2013-01-17 13:12:00,
2013-01-17 07:22:00,32.0,30.0,30.33,East,90,8.0,14.0,94,-99.99,,,-99.99,,2013-01-17 13:22:00,
2013-01-17 07:33:00,32.0,30.0,30.33,East,90,6.0,8.0,94,-99.99,,,-99.99,,2013-01-17 13:33:00,
2013-01-17 07:42:00,32.0,30.0,30.34,East,90,7.0,9.0,95,-99.99,,,-99.99,,2013-01-17 13:42:00,
2013-01-17 07:52:00,32.0,30.0,30.35,East,90,9.0,13.0,94,-99.99,,,-99.99,,2013-01-17 13:52:00,
2013-01-17 08:03:00,32.0,30.0,30.36,NNW,337,11.0,15.0,92,-99.99,,,-99.99,,2013-01-17 14:03:00,
2013-01-17 08:12:00,31.0,28.0,30.37,East,90,12.0,16.0,91,-99.99,,,-99.99,,2013-01-17 14:12:00,
2013-01-17 08:23:00,30.0,28.0,30.38,East,90,10.0,14.0,91,-99.99,,,-99.99,,2013-01-17 14:23:00,
2013-01-17 08:33:00,31.0,28.0,30.38,East,90,10.0,14.0,90,-99.99,,,-99.99,,2013-01-17 14:33:00,
2013-01-17 08:42:00,30.0,29.0,30.39,NNW,337,6.0,9.0,94,-99.99,,,-99.99,,2013-01-17 14:42:00,
2013-01-17 08:52:00,31.0,29.0,30.39,East,90,8.0,12.0,90,-99.99,,,-99.99,,2013-01-17 14:52:00,
2013-01-17 09:03:00,31.0,27.0,30.40,East,90,10.0,14.0,86,-99.99,,,-99.99,,2013-01-17 15:03:00,
2013-01-17 09:12:00,31.0,27.0,30.41,East,90,12.0,16.0,85,-99.99,,,-99.99,,2013-01-17 15:12:00,
2013-01-17 09:22:00,31.0,26.0,30.42,East,90,10.0,16.0,84,-99.99,,,-99.99,,2013-01-17 15:22:00,
2013-01-17 09:33:00,31.0,26.0,30.42,East,90,10.0,15.0,81,-99.99,,,-99.99,,2013-01-17 15:33:00,
2013-01-17 09:43:00,32.0,26.0,30.43,East,90,10.0,16.0,78,-99.99,,,-99.99,,2013-01-17 15:43:00,
2013-01-17 09:52:00,32.0,25.0,30.44,NNW,337,11.0,16.0,76,-99.99,,,-99.99,,2013-01-17 15:52:00,
2013-01-17 10:02:00,32.0,24.0,30.44,East,90,10.0,14.0,72,-99.99,,,-99.99,,2013-01-17 16:02:00,
2013-01-17 10:12:00,32.0,25.0,30.44,East,90,9.0,14.0,74,-99.99,,,-99.99,,2013-01-17 16:12:00,
2013-01-17 10:22:00,32.0,25.0,30.44,NNW,337,10.0,14.0,75,-99.99,,,-99.99,,2013-01-17 16:22:00,
2013-01-17 10:33:00,32.0,23.0,30.45,East,90,10.0,14.0,68,-99.99,,,-99.99,,2013-01-17 16:33:00,
2013-01-17 10:43:00,33.0,24.0,30.45,East,90,8.0,13.0,68,-99.99,,,-99.99,,2013-01-17 16:43:00,
2013-01-17 10:52:00,33.0,21.0,30.45,East,90,11.0,16.0,61,-99.99,,,-99.99,,2013-01-17 16:52:00,
2013-01-17 11:03:00,33.0,24.0,30.45,NNW,337,9.0,14.0,70,-99.99,,,-99.99,,2013-01-17 17:03:00,
2013-01-17 11:12:00,33.0,24.0,30.45,NNW,337,9.0,13.0,71,-99.99,,,-99.99,,2013-01-17 17:12:00,
2013-01-17 11:22:00,33.0,23.0,30.45,NNW,337,9.0,13.0,66,-99.99,,,-99.99,,2013-01-17 17:22:00,
2013-01-17 11:33:00,33.0,23.0,30.44,NNW,337,10.0,14.0,65,-99.99,,,-99.99,,2013-01-17 17:33:00,
2013-01-17 11:43:00,34.0,23.0,30.43,NNW,337,9.0,12.0,62,-99.99,,,-99.99,,2013-01-17 17:43:00,
2013-01-17 11:53:00,34.0,22.0,30.44,NNW,337,11.0,14.0,61,-99.99,,,-99.99,,2013-01-17 17:53:00,
2013-01-17 12:03:00,35.0,22.0,30.43,NNW,337,8.0,12.0,60,-99.99,,,-99.99,,2013-01-17 18:03:00,
2013-01-17 12:12:00,34.0,21.0,30.43,NNW,337,10.0,13.0,59,-99.99,,,-99.99,,2013-01-17 18:12:00,
2013-01-17 12:22:00,35.0,22.0,30.43,NNW,337,9.0,15.0,59,-99.99,,,-99.99,,2013-01-17 18:22:00,
2013-01-17 12:33:00,35.0,22.0,30.43,NNW,337,9.0,13.0,57,-99.99,,,-99.99,,2013-01-17 18:33:00,
2013-01-17 12:43:00,35.0,22.0,30.42,NNW,337,9.0,12.0,58,-99.99,,,-99.99,,2013-01-17 18:43:00,
2013-01-17 12:53:00,35.0,22.0,30.42,NNW,337,9.0,13.0,58,-99.99,,,-99.99,,2013-01-17 18:53:00,
2013-01-17 13:03:00,36.0,22.0,30.42,NNW,337,9.0,12.0,57,-99.99,,,-99.99,,2013-01-17 19:03:00,
2013-01-17 13:12:00,36.0,23.0,30.42,NNW,337,9.0,13.0,59,-99.99,,,-99.99,,2013-01-17 19:12:00,
2013-01-17 13:22:00,36.0,23.0,30.42,NNW,337,10.0,15.0,58,-99.99,,,-99.99,,2013-01-17 19:22:00,
2013-01-17 13:33:00,36.0,22.0,30.42,NNW,337,12.0,17.0,56,-99.99,,,-99.99,,2013-01-17 19:33:00,
2013-01-17 13:42:00,36.0,24.0,30.43,NNW,337,9.0,13.0,60,-99.99,,,-99.99,,2013-01-17 19:42:00,
2013-01-17 13:53:00,37.0,21.0,30.43,NNW,337,11.0,16.0,54,-99.99,,,-99.99,,2013-01-17 19:53:00,
2013-01-17 14:02:00,37.0,22.0,30.43,East,90,10.0,14.0,53,-99.99,,,-99.99,,2013-01-17 20:02:00,
2013-01-17 14:12:00,37.0,23.0,30.43,NNW,337,9.0,13.0,56,-99.99,,,-99.99,,2013-01-17 20:12:00,
2013-01-17 14:23:00,36.0,21.0,30.43,NNW,337,11.0,16.0,54,-99.99,,,-99.99,,2013-01-17 20:23:00,
2013-01-17 14:33:00,37.0,23.0,30.43,NNW,337,7.0,11.0,57,-99.99,,,-99.99,,2013-01-17 20:33:00,
2013-01-17 14:43:00,37.0,23.0,30.43,NNW,337,8.0,12.0,56,-99.99,,,-99.99,,2013-01-17 20:43:00,
2013-01-17 14:53:00,38.0,23.0,30.43,East,90,8.0,12.0,55,-99.99,,,-99.99,,2013-01-17 20:53:00,
2013-01-17 15:02:00,38.0,22.0,30.43,East,90,8.0,11.0,53,-99.99,,,-99.99,,2013-01-17 21:02:00,
2013-01-17 15:12:00,38.0,23.0,30.43,East,90,6.0,9.0,54,-99.99,,,-99.99,,2013-01-17 21:12:00,
2013-01-17 15:23:00,38.0,23.0,30.43,East,90,7.0,10.0,53,-99.99,,,-99.99,,2013-01-17 21:23:00,
2013-01-17 15:33:00,38.0,23.0,30.43,East,90,7.0,9.0,54,-99.99,,,-99.99,,2013-01-17 21:33:00,
2013-01-17 15:42:00,38.0,23.0,30.43,East,90,8.0,11.0,54,-99.99,,,-99.99,,2013-01-17 21:42:00,
2013-01-17 15:52:00,38.0,23.0,30.44,NNW,337,8.0,10.0,56,-99.99,,,-99.99,,2013-01-17 21:52:00,
2013-01-17 16:03:00,38.0,24.0,30.44,NNW,337,6.0,9.0,57,-99.99,,,-99.99,,2013-01-17 22:03:00,
2013-01-17 16:12:00,37.0,24.0,30.45,NNW,337,7.0,11.0,57,-99.99,,,-99.99,,2013-01-17 22:12:00,
2013-01-17 16:22:00,37.0,24.0,30.45,East,90,9.0,14.0,58,-99.99,,,-99.99,,2013-01-17 22:22:00,
2013-01-17 16:33:00,36.0,24.0,30.46,East,90,8.0,12.0,60,-99.99,,,-99.99,,2013-01-17 22:33:00,
2013-01-17 16:42:00,36.0,23.0,30.46,East,90,8.0,12.0,59,-99.99,,,-99.99,,2013-01-17 22:42:00,
2013-01-17 16:52:00,36.0,24.0,30.46,East,90,5.0,7.0,60,-99.99,,,-99.99,,2013-01-17 22:52:00,
2013-01-17 17:02:00,36.0,24.0,30.46,East,90,3.0,5.0,60,-99.99,,,-99.99,,2013-01-17 23:02:00,
2013-01-17 17:12:00,35.0,24.0,30.46,East,90,2.0,4.0,62,-99.99,,,-99.99,,2013-01-17 23:12:00,
2013-01-17 17:22:00,34.0,24.0,30.46,NNW,337,2.0,3.0,66,-99.99,,,-99.99,,2013-01-17 23:22:00,
2013-01-17 17:32:00,33.0,26.0,30.46,NW,315,3.0,3.0,74,-99.99,,,-99.99,,2013-01-17 23:32:00,
2013-01-17 17:42:00,32.0,24.0,30.46,West,270,0.0,-999.0,72,-99.99,,,-99.99,,2013-01-17 23:42:00,
2013-01-17 17:52:00,32.0,24.0,30.47,West,270,1.0,2.0,70,-99.99,,,-99.99,,2013-01-17 23:52:00,
2013-01-17 18:02:00,31.0,24.0,30.47,WSW,247,0.0,-999.0,73,-99.99,,,-99.99,,2013-01-18 00:02:00,
2013-01-17 18:12:00,31.0,23.0,30.47,WSW,247,0.0,-999.0,72,-99.99,,,-99.99,,2013-01-18 00:12:00,
2013-01-17 18:23:00,31.0,24.0,30.47,West,270,0.0,-999.0,77,-99.99,,,-99.99,,2013-01-18 00:23:00,
2013-01-17 18:32:00,30.0,23.0,30.47,West,270,2.0,3.0,76,-99.99,,,-99.99,,2013-01-18 00:32:00,
2013-01-17 18:42:00,29.0,23.0,30.48,West,270,0.0,-999.0,78,-99.99,,,-99.99,,2013-01-18 00:42:00,
2013-01-17 18:52:00,29.0,24.0,30.48,WSW,247,0.0,-999.0,82,-99.99,,,-99.99,,2013-01-18 00:52:00,
2013-01-17 19:02:00,28.0,24.0,30.49,WSW,247,0.0,-999.0,84,-99.99,,,-99.99,,2013-01-18 01:02:00,
2013-01-17 19:12:00,29.0,25.0,30.48,WSW,247,0.0,-999.0,85,-99.99,,,-99.99,,2013-01-18 01:12:00,
2013-01-17 19:22:00,29.0,26.0,30.48,SW,225,0.0,-999.0,89,-99.99,,,-99.99,,2013-01-18 01:22:00,
2013-01-17 19:33:00,28.0,26.0,30.49,SSW,202,0.0,-999.0,90,-99.99,,,-99.99,,2013-01-18 01:33:00,
2013-01-17 19:42:00,28.0,25.0,30.49,SW,225,0.0,-999.0,88,-99.99,,,-99.99,,2013-01-18 01:42:00,
2013-01-17 19:52:00,27.0,25.0,30.49,ESE,112,0.0,-999.0,92,-99.99,,,-99.99,,2013-01-18 01:52:00,
2013-01-17 20:02:00,27.0,25.0,30.49,SSW,202,2.0,3.0,91,-99.99,,,-99.99,,2013-01-18 02:02:00,
2013-01-17 20:12:00,27.0,25.0,30.49,SSW,202,0.0,-999.0,89,-99.99,,,-99.99,,2013-01-18 02:12:00,
2013-01-17 20:22:00,27.0,24.0,30.49,SSE,157,0.0,-999.0,91,-99.99,,,-99.99,,2013-01-18 02:22:00,
2013-01-17 20:32:00,27.0,25.0,30.49,SSE,157,2.0,3.0,94,-99.99,,,-99.99,,2013-01-18 02:32:00,
2013-01-17 20:42:00,27.0,25.0,30.49,SSE,157,2.0,2.0,94,-99.99,,,-99.99,,2013-01-18 02:42:00,
2013-01-17 20:52:00,27.0,25.0,30.49,SSE,157,0.0,-999.0,93,-99.99,,,-99.99,,2013-01-18 02:52:00,
2013-01-17 21:02:00,26.0,24.0,30.49,SSW,202,0.0,-999.0,92,-99.99,,,-99.99,,2013-01-18 03:02:00,
2013-01-17 21:12:00,26.0,24.0,30.50,South,180,0.0,-999.0,94,-99.99,,,-99.99,,2013-01-18 03:12:00,
2013-01-17 21:22:00,27.0,25.0,30.50,South,180,2.0,3.0,94,-99.99,,,-99.99,,2013-01-18 03:22:00,
2013-01-17 21:33:00,26.0,25.0,30.50,SSE,157,0.0,-999.0,93,-99.99,,,-99.99,,2013-01-18 03:33:00,
2013-01-17 21:42:00,26.0,25.0,30.50,SSE,157,1.0,2.0,94,-99.99,,,-99.99,,2013-01-18 03:42:00,
2013-01-17 21:52:00,26.0,24.0,30.49,SSW,202,2.0,4.0,94,-99.99,,,-99.99,,2013-01-18 03:52:00,
2013-01-17 22:02:00,27.0,24.0,30.49,South,180,4.0,6.0,90,-99.99,,,-99.99,,2013-01-18 04:02:00,
2013-01-17 22:12:00,26.0,24.0,30.49,SSW,202,3.0,4.0,90,-99.99,,,-99.99,,2013-01-18 04:12:00,
2013-01-17 22:22:00,27.0,24.0,30.49,SSW,202,3.0,4.0,89,-99.99,,,-99.99,,2013-01-18 04:22:00,
2013-01-17 22:32:00,26.0,23.0,30.49,South,180,2.0,3.0,89,-99.99,,,-99.99,,2013-01-18 04:32:00,
2013-01-17 22:42:00,25.0,24.0,30.49,South,180,2.0,2.0,92,-99.99,,,-99.99,,2013-01-18 04:42:00,
2013-01-17 22:52:00,25.0,23.0,30.49,SSE,157,2.0,3.0,92,-99.99,,,-99.99,,2013-01-18 04:52:00,
2013-01-17 23:03:00,27.0,24.0,30.49,South,180,3.0,4.0,89,-99.99,,,-99.99,,2013-01-18 05:03:00,
2013-01-17 23:12:00,27.0,24.0,30.49,South,180,4.0,4.0,88,-99.99,,,-99.99,,2013-01-18 05:12:00,
2013-01-17 23:22:00,27.0,23.0,30.49,South,180,3.0,4.0,85,-99.99,,,-99.99,,2013-01-18 05:22:00,
2013-01-17 23:33:00,28.0,23.0,30.49,SSW,202,3.0,5.0,84,-99.99,,,-99.99,,2013-01-18 05:33:00,
2013-01-17 23:42:00,27.0,23.0,30.49,SSW,202,5.0,6.0,84,-99.99,,,-99.99,,2013-01-18 05:42:00,
2013-01-17 23:52:00,27.0,23.0,30.49,SSW,202,4.0,6.0,86,-99.99,,,-99.99,,2013-01-18 05:52:00,